createdAt,value
2022-10-09T00:01:03.317Z,102253.28
2022-10-09T00:03:30.982Z,102253.56
2022-10-09T00:05:58.833Z,102256.47
2022-10-09T00:08:26.443Z,102259.41
2022-10-09T00:10:55.418Z,102255.19
2022-10-09T00:13:23.545Z,102250.31
2022-10-09T00:15:51.089Z,102258.53
2022-10-09T00:18:19.733Z,102260.50
2022-10-09T00:20:48.102Z,102260.78
2022-10-09T00:23:17.397Z,102264.25
2022-10-09T00:25:52.098Z,102268.84
2022-10-09T00:28:21.101Z,102268.16
2022-10-09T00:30:48.839Z,102272.78
2022-10-09T00:33:16.468Z,102271.19
2022-10-09T00:35:44.154Z,102267.84
2022-10-09T00:38:11.858Z,102279.44
2022-10-09T00:40:40.269Z,102281.13
2022-10-09T00:43:13.306Z,102282.81
2022-10-09T00:45:45.033Z,102282.66
2022-10-09T00:48:13.527Z,102275.81
2022-10-09T00:50:44.739Z,102282.94
2022-10-09T00:53:16.737Z,102280.41
2022-10-09T00:55:44.381Z,102292.00
2022-10-09T00:58:13.765Z,102288.66
2022-10-09T01:00:42.774Z,102292.00
2022-10-09T01:03:10.318Z,102297.44
2022-10-09T01:05:49.400Z,102293.94
2022-10-09T01:08:21.441Z,102286.97
2022-10-09T01:10:55.348Z,102284.31
2022-10-09T01:13:29.127Z,102287.81
2022-10-09T01:16:01.207Z,102288.66
2022-10-09T01:18:38.136Z,102284.88
2022-10-09T01:21:11.833Z,102282.53
2022-10-09T01:23:54.060Z,102294.25
2022-10-09T01:26:35.694Z,102288.56
2022-10-09T01:29:08.893Z,102289.25
2022-10-09T01:31:40.357Z,102283.00
2022-10-09T01:34:09.351Z,102288.41
2022-10-09T01:36:38.024Z,102291.91
2022-10-09T01:39:08.595Z,102286.03
2022-10-09T01:41:36.325Z,102287.03
2022-10-09T01:44:15.445Z,102292.44
2022-10-09T01:46:43.091Z,102284.75
2022-10-09T01:49:18.550Z,102296.50
2022-10-09T01:51:52.718Z,102293.16
2022-10-09T01:54:30.170Z,102297.72
2022-10-09T01:57:03.333Z,102290.03
2022-10-09T01:59:37.272Z,102295.34
2022-10-09T02:02:06.073Z,102292.00
2022-10-09T02:04:34.905Z,102292.00
2022-10-09T02:07:02.970Z,102300.09
2022-10-09T02:09:31.462Z,102300.22
2022-10-09T02:12:05.293Z,102294.22
2022-10-09T02:14:34.796Z,102298.69
2022-10-09T02:17:06.767Z,102303.28
2022-10-09T02:19:39.971Z,102300.91
2022-10-09T02:22:14.002Z,102317.09
2022-10-09T02:24:43.201Z,102314.53
2022-10-09T02:27:12.256Z,102314.81
2022-10-09T02:29:42.589Z,102317.63
2022-10-09T02:32:10.959Z,102317.88
2022-10-09T02:34:38.665Z,102319.00
2022-10-09T02:37:06.854Z,102319.94
2022-10-09T02:39:34.618Z,102317.56
2022-10-09T02:42:02.281Z,102318.66
2022-10-09T02:44:30.151Z,102316.13
2022-10-09T02:46:59.030Z,102328.69
2022-10-09T02:49:26.583Z,102321.69
2022-10-09T02:51:54.219Z,102324.50
2022-10-09T02:54:21.767Z,102324.63
2022-10-09T02:56:49.284Z,102329.22
2022-10-09T02:59:17.021Z,102328.53
2022-10-09T03:01:45.828Z,102329.47
2022-10-09T03:04:14.793Z,102329.75
2022-10-09T03:06:42.678Z,102330.00
2022-10-09T03:09:10.194Z,102320.25
2022-10-09T03:11:37.746Z,102323.00
2022-10-09T03:14:05.253Z,102324.69
2022-10-09T03:16:32.849Z,102337.09
2022-10-09T03:19:00.438Z,102335.31
2022-10-09T03:21:29.350Z,102335.31
2022-10-09T03:23:57.362Z,102338.06
2022-10-09T03:26:27.661Z,102335.41
2022-10-09T03:28:56.629Z,102336.41
2022-10-09T03:31:50.695Z,102345.31
2022-10-09T03:34:14.487Z,102343.50
2022-10-09T03:36:43.474Z,102344.34
2022-10-09T03:39:11.351Z,102348.66
2022-10-09T03:41:38.906Z,102348.66
2022-10-09T03:44:06.625Z,102356.59
2022-10-09T03:46:34.304Z,102354.81
2022-10-09T03:49:01.894Z,102354.69
2022-10-09T03:51:29.435Z,102353.59
2022-10-09T03:53:58.349Z,102358.63
2022-10-09T03:56:26.051Z,102353.75
2022-10-09T03:58:53.585Z,102358.81
2022-10-09T04:01:21.157Z,102358.53
2022-10-09T04:03:48.938Z,102354.09
2022-10-09T04:06:17.495Z,102359.28
2022-10-09T04:08:45.027Z,102366.22
2022-10-09T04:11:13.903Z,102362.63
2022-10-09T04:13:41.450Z,102356.63
2022-10-09T04:16:12.545Z,102372.53
2022-10-09T04:18:40.565Z,102369.88
2022-10-09T04:21:08.712Z,102364.69
2022-10-09T04:23:36.253Z,102362.03
2022-10-09T04:26:03.850Z,102366.50
2022-10-09T04:28:33.494Z,102369.28
2022-10-09T04:31:01.382Z,102364.94
2022-10-09T04:33:29.502Z,102371.34
2022-10-09T04:35:57.949Z,102365.34
2022-10-09T04:38:25.754Z,102373.56
2022-10-09T04:40:57.779Z,102367.69
2022-10-09T04:43:25.783Z,102371.28
2022-10-09T04:45:54.767Z,102369.59
2022-10-09T04:48:22.693Z,102371.44
2022-10-09T04:50:50.411Z,102378.53
2022-10-09T04:53:17.974Z,102373.34
2022-10-09T04:55:46.278Z,102374.34
2022-10-09T04:58:14.936Z,102368.19
2022-10-09T05:00:43.412Z,102368.19
2022-10-09T05:03:12.901Z,102371.69
2022-10-09T05:05:40.570Z,102376.16
2022-10-09T05:08:08.129Z,102375.31
2022-10-09T05:10:35.667Z,102378.06
2022-10-09T05:13:03.206Z,102364.81
2022-10-09T05:15:30.905Z,102374.59
2022-10-09T05:17:58.645Z,102375.56
2022-10-09T05:20:27.586Z,102380.84
2022-10-09T05:22:55.125Z,102376.53
2022-10-09T05:25:22.630Z,102381.81
2022-10-09T05:27:50.217Z,102380.84
2022-10-09T05:30:17.975Z,102377.38
2022-10-09T05:32:45.508Z,102377.94
2022-10-09T05:35:13.040Z,102379.66
2022-10-09T05:37:45.122Z,102387.44
2022-10-09T05:40:12.742Z,102390.78
2022-10-09T05:42:40.286Z,102388.88
2022-10-09T05:45:09.394Z,102389.59
2022-10-09T05:47:36.905Z,102386.66
2022-10-09T05:50:04.845Z,102394.50
2022-10-09T05:52:32.365Z,102396.75
2022-10-09T05:55:01.298Z,102394.69
2022-10-09T05:57:29.190Z,102395.84
2022-10-09T05:59:56.693Z,102401.72
2022-10-09T06:02:24.325Z,102402.03
2022-10-09T06:04:51.927Z,102399.72
2022-10-09T06:07:19.433Z,102399.75
2022-10-09T06:09:46.958Z,102397.16
2022-10-09T06:12:15.826Z,102395.50
2022-10-09T06:14:43.357Z,102399.75
2022-10-09T06:17:10.893Z,102407.72
2022-10-09T06:19:38.398Z,102405.69
2022-10-09T06:22:05.930Z,102412.13
2022-10-09T06:24:33.447Z,102414.13
2022-10-09T06:27:01.070Z,102406.31
2022-10-09T06:29:30.517Z,102416.53
2022-10-09T06:31:58.199Z,102406.47
2022-10-09T06:34:25.970Z,102410.81
2022-10-09T06:36:53.504Z,102413.75
2022-10-09T06:39:21.094Z,102415.41
2022-10-09T06:41:48.627Z,102410.91
2022-10-09T06:44:17.348Z,102420.59
2022-10-09T06:46:49.807Z,102421.84
2022-10-09T06:49:17.378Z,102419.16
2022-10-09T06:51:45.031Z,102410.72
2022-10-09T06:54:14.211Z,102414.16
2022-10-09T06:56:42.077Z,102417.78
2022-10-09T06:59:12.010Z,102419.13
2022-10-09T07:01:39.705Z,102419.75
2022-10-09T07:04:11.739Z,102410.28
2022-10-09T07:06:42.002Z,102423.81
2022-10-09T07:09:12.338Z,102415.97
2022-10-09T07:11:42.973Z,102417.72
2022-10-09T07:14:11.925Z,102417.38
2022-10-09T07:16:42.391Z,102425.16
2022-10-09T07:19:12.859Z,102419.13
2022-10-09T07:21:42.198Z,102426.44
2022-10-09T07:24:11.186Z,102428.22
2022-10-09T07:26:41.405Z,102432.41
2022-10-09T07:29:10.157Z,102431.41
2022-10-09T07:31:37.713Z,102438.25
2022-10-09T07:34:06.230Z,102442.44
2022-10-09T07:36:35.667Z,102435.50
2022-10-09T07:39:03.352Z,102440.84
2022-10-09T07:41:30.987Z,102431.16
2022-10-09T07:43:58.958Z,102448.56
2022-10-09T07:46:33.023Z,102442.03
2022-10-09T07:49:01.922Z,102452.72
2022-10-09T07:51:30.671Z,102443.53
2022-10-09T07:54:01.743Z,102454.94
2022-10-09T07:56:31.083Z,102457.63
2022-10-09T07:59:00.161Z,102451.94
2022-10-09T08:01:29.283Z,102452.28
2022-10-09T08:03:57.536Z,102451.13
2022-10-09T08:06:25.211Z,102463.31
2022-10-09T08:08:54.324Z,102457.66
2022-10-09T08:11:24.695Z,102453.13
2022-10-09T08:13:53.655Z,102450.94
2022-10-09T08:16:22.772Z,102455.97
2022-10-09T08:18:50.454Z,102455.31
2022-10-09T08:21:19.742Z,102449.91
2022-10-09T08:23:47.439Z,102460.09
2022-10-09T08:26:16.221Z,102466.63
2022-10-09T08:28:45.459Z,102463.97
2022-10-09T08:31:14.444Z,102465.75
2022-10-09T08:33:42.229Z,102463.50
2022-10-09T08:36:14.349Z,102463.94
2022-10-09T08:38:47.642Z,102464.53
2022-10-09T08:41:24.289Z,102460.00
2022-10-09T08:44:01.067Z,102456.47
2022-10-09T08:46:34.409Z,102454.28
2022-10-09T08:49:05.242Z,102458.03
2022-10-09T08:51:39.146Z,102455.13
2022-10-09T08:54:14.427Z,102447.97
2022-10-09T08:56:42.023Z,102448.47
2022-10-09T08:59:12.793Z,102453.97
2022-10-09T09:01:48.595Z,102452.78
2022-10-09T09:04:34.314Z,102463.94
2022-10-09T09:07:11.563Z,102450.06
2022-10-09T09:09:47.960Z,102454.09
2022-10-09T09:12:21.621Z,102444.28
2022-10-09T09:15:02.328Z,102456.59
2022-10-09T09:17:38.374Z,102462.44
2022-10-09T09:20:15.958Z,102459.50
2022-10-09T09:22:47.373Z,102470.34
2022-10-09T09:25:20.803Z,102456.72
2022-10-09T09:27:48.981Z,102459.97
2022-10-09T09:30:21.578Z,102456.81
2022-10-09T09:32:57.538Z,102454.00
2022-10-09T09:35:30.927Z,102452.53
2022-10-09T09:37:58.461Z,102447.25
2022-10-09T09:40:36.863Z,102441.88
2022-10-09T09:43:16.477Z,102449.81
2022-10-09T09:45:46.132Z,102444.66
2022-10-09T09:48:17.342Z,102449.66
2022-10-09T09:50:52.981Z,102449.41
2022-10-09T09:53:36.724Z,102447.72
2022-10-09T09:56:04.912Z,102441.16
2022-10-09T09:58:37.034Z,102440.31
2022-10-09T10:01:07.595Z,102435.47
2022-10-09T10:03:36.724Z,102440.94
2022-10-09T10:06:04.759Z,102439.38
2022-10-09T10:08:34.702Z,102438.56
2022-10-09T10:11:04.284Z,102441.69
2022-10-09T10:13:35.758Z,102437.69
2022-10-09T10:16:04.493Z,102430.81
2022-10-09T10:18:40.148Z,102430.16
2022-10-09T10:21:12.249Z,102425.84
2022-10-09T10:23:42.852Z,102426.09
2022-10-09T10:26:21.522Z,102428.03
2022-10-09T10:28:55.098Z,102428.34
2022-10-09T10:31:48.607Z,102422.88
2022-10-09T10:34:23.384Z,102431.50
2022-10-09T10:37:02.478Z,102428.66
2022-10-09T10:39:37.821Z,102422.13
2022-10-09T10:42:16.514Z,102424.31
2022-10-09T10:44:51.609Z,102422.25
2022-10-09T10:47:24.750Z,102413.56
2022-10-09T10:49:54.034Z,102416.88
2022-10-09T10:52:36.214Z,102410.75
2022-10-09T10:55:16.909Z,102414.97
2022-10-09T10:57:52.929Z,102413.44
2022-10-09T11:00:20.663Z,102414.06
2022-10-09T11:03:02.771Z,102419.34
2022-10-09T11:05:42.689Z,102411.47
2022-10-09T11:08:26.315Z,102414.72
2022-10-09T11:11:03.225Z,102407.16
2022-10-09T11:13:34.905Z,102414.56
2022-10-09T11:16:15.240Z,102403.94
2022-10-09T11:18:56.073Z,102400.84
2022-10-09T11:21:36.503Z,102403.41
2022-10-09T11:24:26.663Z,102396.31
2022-10-09T11:27:03.640Z,102399.31
2022-10-09T11:29:38.150Z,102407.63
2022-10-09T11:32:13.620Z,102393.94
2022-10-09T11:34:45.771Z,102389.97
2022-10-09T11:37:21.362Z,102386.72
2022-10-09T11:39:49.038Z,102385.22
2022-10-09T11:42:25.134Z,102381.75
2022-10-09T11:45:03.634Z,102375.97
2022-10-09T11:47:40.790Z,102375.66
2022-10-09T11:50:23.710Z,102375.59
2022-10-09T11:52:59.136Z,102378.72
2022-10-09T11:55:28.554Z,102363.16
2022-10-09T11:57:56.168Z,102370.69
2022-10-09T12:00:32.030Z,102363.66
2022-10-09T12:03:03.166Z,102364.72
2022-10-09T12:05:39.689Z,102365.75
2022-10-09T12:08:15.354Z,102359.13
2022-10-09T12:10:51.967Z,102363.09
2022-10-09T12:13:32.783Z,102351.03
2022-10-09T12:16:01.094Z,102354.34
2022-10-09T12:18:31.149Z,102353.28
2022-10-09T12:21:02.342Z,102338.66
2022-10-09T12:23:35.318Z,102343.25
2022-10-09T12:26:03.679Z,102333.16
2022-10-09T12:28:36.577Z,102333.94
2022-10-09T12:31:08.140Z,102329.16
2022-10-09T12:33:39.046Z,102325.91
2022-10-09T12:36:13.258Z,102329.75
2022-10-09T12:38:42.698Z,102309.88
2022-10-09T12:41:20.133Z,102309.06
2022-10-09T12:43:49.726Z,102314.66
2022-10-09T12:46:27.499Z,102307.91
2022-10-09T12:48:55.471Z,102309.34
2022-10-09T12:51:26.135Z,102305.88
2022-10-09T12:53:55.880Z,102309.47
2022-10-09T12:56:26.398Z,102300.69
2022-10-09T12:58:54.473Z,102307.81
2022-10-09T13:01:22.824Z,102302.31
2022-10-09T13:03:56.132Z,102291.97
2022-10-09T13:06:26.109Z,102294.47
2022-10-09T13:08:57.640Z,102293.28
2022-10-09T13:11:31.418Z,102292.53
2022-10-09T13:13:59.330Z,102280.31
2022-10-09T13:16:27.097Z,102279.09
2022-10-09T13:18:57.852Z,102276.00
2022-10-09T13:21:31.511Z,102280.94
2022-10-09T13:24:10.378Z,102280.47
2022-10-09T13:26:39.666Z,102275.66
2022-10-09T13:29:08.434Z,102273.72
2022-10-09T13:31:36.952Z,102262.94
2022-10-09T13:34:12.469Z,102268.88
2022-10-09T13:36:40.100Z,102260.00
2022-10-09T13:39:14.428Z,102263.56
2022-10-09T13:41:43.822Z,102260.81
2022-10-09T13:44:11.489Z,102257.69
2022-10-09T13:46:39.030Z,102252.47
2022-10-09T13:49:06.631Z,102245.25
2022-10-09T13:51:34.628Z,102253.34
2022-10-09T13:54:02.162Z,102245.50
2022-10-09T13:56:31.044Z,102245.28
2022-10-09T13:58:58.690Z,102238.00
2022-10-09T14:01:26.320Z,102237.50
2022-10-09T14:03:53.874Z,102232.63
2022-10-09T14:06:22.348Z,102233.88
2022-10-09T14:08:50.658Z,102224.97
2022-10-09T14:11:18.245Z,102229.25
2022-10-09T14:13:47.120Z,102223.69
2022-10-09T14:16:15.666Z,102225.97
2022-10-09T14:18:43.250Z,102223.84
2022-10-09T14:21:15.004Z,102219.22
2022-10-09T14:23:43.756Z,102217.03
2022-10-09T14:26:11.530Z,102219.25
2022-10-09T14:28:39.225Z,102206.50
2022-10-09T14:31:08.781Z,102210.00
2022-10-09T14:33:36.646Z,102204.41
2022-10-09T14:36:08.757Z,102205.78
2022-10-09T14:38:39.851Z,102199.75
2022-10-09T14:41:07.787Z,102202.00
2022-10-09T14:43:35.803Z,102197.94
2022-10-09T14:46:06.417Z,102193.16
2022-10-09T14:48:36.089Z,102195.00
2022-10-09T14:51:04.741Z,102190.63
2022-10-09T14:53:32.793Z,102187.94
2022-10-09T14:56:03.444Z,102183.78
2022-10-09T14:58:31.658Z,102184.94
2022-10-09T15:00:59.898Z,102186.53
2022-10-09T15:03:29.054Z,102179.03
2022-10-09T15:05:59.536Z,102179.25
2022-10-09T15:08:27.597Z,102187.63
2022-10-09T15:10:55.606Z,102179.88
2022-10-09T15:13:23.121Z,102184.72
2022-10-09T15:15:50.653Z,102178.28
2022-10-09T15:18:18.614Z,102180.88
2022-10-09T15:20:47.069Z,102180.97
2022-10-09T15:23:16.022Z,102175.34
2022-10-09T15:25:49.189Z,102174.47
2022-10-09T15:28:17.380Z,102163.44
2022-10-09T15:30:45.992Z,102159.84
2022-10-09T15:33:13.701Z,102163.09
2022-10-09T15:35:41.647Z,102161.16
2022-10-09T15:38:15.026Z,102155.69
2022-10-09T15:40:46.140Z,102157.81
2022-10-09T15:43:14.842Z,102153.75
2022-10-09T15:45:42.889Z,102151.78
2022-10-09T15:48:16.461Z,102151.44
2022-10-09T15:50:46.335Z,102142.66
2022-10-09T15:53:15.065Z,102143.94
2022-10-09T15:55:45.958Z,102142.38
2022-10-09T15:58:13.957Z,102144.31
2022-10-09T16:00:43.893Z,102145.56
2022-10-09T16:03:11.705Z,102140.44
2022-10-09T16:05:40.346Z,102137.19
2022-10-09T16:08:08.786Z,102136.59
2022-10-09T16:10:46.338Z,102139.53
2022-10-09T16:13:17.703Z,102135.41
2022-10-09T16:15:47.333Z,102132.13
2022-10-09T16:18:16.708Z,102129.66
2022-10-09T16:20:44.697Z,102131.75
2022-10-09T16:23:12.880Z,102128.81
2022-10-09T16:25:41.481Z,102134.56
2022-10-09T16:28:11.697Z,102124.41
2022-10-09T16:30:42.210Z,102126.66
2022-10-09T16:33:12.624Z,102123.34
2022-10-09T16:35:40.791Z,102125.41
2022-10-09T16:38:08.946Z,102121.44
2022-10-09T16:43:24.048Z,102129.16
2022-10-09T16:45:52.910Z,102122.47
2022-10-09T16:48:20.462Z,102127.16
2022-10-09T16:50:48.383Z,102123.84
2022-10-09T16:53:15.901Z,102128.34
2022-10-09T16:55:43.433Z,102125.84
2022-10-09T16:58:10.972Z,102122.34
2022-10-09T17:00:38.540Z,102127.84
2022-10-09T17:03:07.461Z,102121.66
2022-10-09T17:05:39.175Z,102127.81
2022-10-09T17:08:06.739Z,102124.47
2022-10-09T17:10:34.304Z,102129.94
2022-10-09T17:13:01.825Z,102128.78
2022-10-09T17:15:29.354Z,102126.06
2022-10-09T17:17:56.888Z,102126.06
2022-10-09T17:20:25.778Z,102129.53
2022-10-09T17:22:53.293Z,102118.00
2022-10-09T17:25:20.831Z,102118.81
2022-10-09T17:27:48.375Z,102123.94
2022-10-09T17:30:16.121Z,102116.53
2022-10-09T17:32:43.701Z,102114.50
2022-10-09T17:35:11.611Z,102115.84
2022-10-09T17:37:40.498Z,102121.50
2022-10-09T17:40:08.733Z,102115.78
2022-10-09T17:42:36.283Z,102113.44
2022-10-09T17:45:04.003Z,102110.41
2022-10-09T17:47:31.571Z,102116.06
2022-10-09T17:49:59.099Z,102106.56
2022-10-09T17:52:26.701Z,102107.72
2022-10-09T17:54:55.688Z,102105.38
2022-10-09T17:57:23.259Z,102099.53
2022-10-09T17:59:50.774Z,102093.84
2022-10-09T18:02:18.321Z,102093.44
2022-10-09T18:04:45.868Z,102092.78
2022-10-09T18:07:13.830Z,102088.75
2022-10-09T18:09:41.357Z,102088.94
2022-10-09T18:12:10.238Z,102086.72
2022-10-09T18:14:37.754Z,102083.56
2022-10-09T18:17:05.274Z,102085.53
2022-10-09T18:19:32.865Z,102092.97
2022-10-09T18:22:00.393Z,102085.47
2022-10-09T18:24:28.031Z,102081.44
2022-10-09T18:26:55.586Z,102080.91
2022-10-09T18:29:24.518Z,102073.41
2022-10-09T18:31:55.556Z,102074.69
2022-10-09T18:34:23.221Z,102068.03
2022-10-09T18:36:52.178Z,102071.00
2022-10-09T18:39:21.433Z,102060.66
2022-10-09T18:41:48.982Z,102067.28
2022-10-09T18:44:19.962Z,102070.25
2022-10-09T18:46:52.561Z,102065.09
2022-10-09T18:49:23.573Z,102065.22
2022-10-09T18:51:52.158Z,102057.56
2022-10-09T18:54:22.862Z,102062.34
2022-10-09T18:56:50.538Z,102058.16
2022-10-09T18:59:21.678Z,102049.34
2022-10-09T19:01:50.776Z,102050.50
2022-10-09T19:04:18.956Z,102047.16
2022-10-09T19:06:46.633Z,102044.34
2022-10-09T19:09:14.724Z,102049.81
2022-10-09T19:11:42.302Z,102045.47
2022-10-09T19:14:09.842Z,102046.50
2022-10-09T19:16:37.380Z,102044.13
2022-10-09T19:19:07.111Z,102039.13
2022-10-09T19:21:36.272Z,102041.78
2022-10-09T19:24:06.131Z,102037.44
2022-10-09T19:26:35.200Z,102033.94
2022-10-09T19:29:02.829Z,102035.09
2022-10-09T19:31:31.891Z,102032.56
2022-10-09T19:34:00.802Z,102024.09
2022-10-09T19:36:33.048Z,102028.88
2022-10-09T19:39:00.677Z,102020.03
2022-10-09T19:41:28.401Z,102016.72
2022-10-09T19:43:56.052Z,102021.31
2022-10-09T19:46:23.872Z,102009.84
2022-10-09T19:48:51.819Z,102012.69
2022-10-09T19:51:21.505Z,102009.34
2022-10-09T19:53:52.064Z,102014.13
2022-10-09T19:56:21.766Z,102007.97
2022-10-09T19:58:50.598Z,102001.28
2022-10-09T20:01:19.789Z,102018.53
2022-10-09T20:03:48.538Z,102008.88
2022-10-09T20:06:16.579Z,102003.56
2022-10-09T20:08:45.116Z,102006.22
2022-10-09T20:11:14.101Z,102001.88
2022-10-09T20:13:43.039Z,102006.88
2022-10-09T20:16:12.947Z,102000.91
2022-10-09T20:18:42.144Z,102001.56
2022-10-09T20:21:10.559Z,101988.16
2022-10-09T20:23:38.100Z,101988.28
2022-10-09T20:26:08.406Z,101982.00
2022-10-09T20:28:38.390Z,101980.31
2022-10-09T20:31:08.110Z,101980.00
2022-10-09T20:33:36.600Z,101979.88
2022-10-09T20:36:05.414Z,101979.03
2022-10-09T20:38:32.997Z,101978.72
2022-10-09T20:41:04.551Z,101976.91
2022-10-09T20:43:32.078Z,101979.41
2022-10-09T20:46:00.943Z,101979.09
2022-10-09T20:48:28.477Z,101981.63
2022-10-09T20:50:55.995Z,101971.66
2022-10-09T20:53:23.521Z,101968.53
2022-10-09T20:55:51.030Z,101964.88
2022-10-09T20:58:18.698Z,101973.25
2022-10-09T21:00:46.278Z,101966.91
2022-10-09T21:03:15.158Z,101965.94
2022-10-09T21:05:43.682Z,101959.78
2022-10-09T21:08:11.437Z,101950.34
2022-10-09T21:10:43.695Z,101951.03
2022-10-09T21:13:11.233Z,101944.88
2022-10-09T21:15:43.639Z,101947.38
2022-10-09T21:18:11.750Z,101944.56
2022-10-09T21:20:41.958Z,101930.13
2022-10-09T21:23:10.432Z,101936.97
2022-10-09T21:25:38.698Z,101931.50
2022-10-09T21:28:06.774Z,101934.16
2022-10-09T21:30:41.611Z,101944.44
2022-10-09T21:33:09.606Z,101932.16
2022-10-09T21:35:41.339Z,101923.34
2022-10-09T21:38:12.875Z,101927.69
2022-10-09T21:40:40.510Z,101920.38
2022-10-09T21:43:10.442Z,101921.88
2022-10-09T21:45:38.721Z,101915.41
2022-10-09T21:48:07.009Z,101908.13
2022-10-09T21:50:36.238Z,101915.94
2022-10-09T21:53:05.515Z,101910.59
2022-10-09T21:55:33.203Z,101913.25
2022-10-09T21:58:00.768Z,101910.47
2022-10-09T22:00:28.307Z,101905.94
2022-10-09T22:02:55.867Z,101903.81
2022-10-09T22:05:23.408Z,101899.50
2022-10-09T22:07:51.014Z,101894.84
2022-10-09T22:10:20.547Z,101888.56
2022-10-09T22:12:48.239Z,101884.03
2022-10-09T22:15:16.050Z,101886.56
2022-10-09T22:17:43.578Z,101874.22
2022-10-09T22:20:11.140Z,101872.41
2022-10-09T22:22:38.671Z,101855.59
2022-10-09T22:25:07.309Z,101855.78
2022-10-09T22:27:36.298Z,101856.44
2022-10-09T22:30:04.217Z,101851.97
2022-10-09T22:32:31.750Z,101846.47
2022-10-09T22:34:59.311Z,101851.78
2022-10-09T22:37:26.922Z,101837.69
2022-10-09T22:39:54.426Z,101844.66
2022-10-09T22:42:21.991Z,101839.50
2022-10-09T22:44:50.861Z,101834.19
2022-10-09T22:47:18.390Z,101835.16
2022-10-09T22:49:46.168Z,101823.84
2022-10-09T22:52:13.682Z,101833.66
2022-10-09T22:54:41.225Z,101834.63
2022-10-09T22:57:08.858Z,101825.69
2022-10-09T22:59:36.441Z,101824.84
2022-10-09T23:02:05.478Z,101807.38
2022-10-09T23:04:33.174Z,101817.34
2022-10-09T23:07:01.919Z,101805.88
2022-10-09T23:09:32.233Z,101805.88
2022-10-09T23:12:00.931Z,101797.88
2022-10-09T23:14:28.851Z,101791.72
2022-10-09T23:16:56.454Z,101797.19
2022-10-09T23:19:25.338Z,101793.72
2022-10-09T23:21:52.865Z,101786.72
2022-10-09T23:24:20.389Z,101781.72
2022-10-09T23:26:51.780Z,101788.88
2022-10-09T23:29:20.679Z,101782.03
2022-10-09T23:31:49.385Z,101774.22
2022-10-09T23:34:17.007Z,101777.22
2022-10-09T23:36:45.886Z,101770.53
2022-10-09T23:39:14.222Z,101765.53
2022-10-09T23:41:41.827Z,101769.19
2022-10-09T23:44:09.414Z,101761.53
2022-10-09T23:46:37.672Z,101758.34
2022-10-09T23:49:06.469Z,101755.03
2022-10-09T23:51:34.128Z,101756.00
2022-10-09T23:54:03.025Z,101760.84
2022-10-09T23:56:33.144Z,101757.66
2022-10-09T23:59:02.244Z,101749.31
